Time;durP1;ratioP1;P1;durP2;ratioP2;P2;SDS_P1;SDS_P2;PMS_P1;PMS_P2;Temp;Humidity;BMP_temperature;BMP_pressure;BME280_temperature;BME280_humidity;BME280_pressure;Samples;Min_cycle;Max_cycle;Signal;HPM_P1;HPM_P2
2021/03/01 00:02:09;;;;;;;28.38;18.38;;;;;;;;;;5095730;28;20216;-63
2021/03/01 00:04:35;;;;;;;27.15;18.95;;;;;;;;;;5095574;28;20216;-62
2021/03/01 00:07:03;;;;;;;25.02;18.45;;;;;;;;;;5094861;28;20384;-62
2021/03/01 00:09:30;;;;;;;26.10;19.10;;;;;;;;;;5094295;28;20707;-63
2021/03/01 00:11:57;;;;;;;28.52;17.88;;;;;;;;;;5094890;28;20196;-63
2021/03/01 00:14:23;;;;;;;28.33;18.13;;;;;;;;;;5094154;28;20278;-63
2021/03/01 00:16:50;;;;;;;28.10;19.88;;;;;;;;;;5093836;28;20200;-63
2021/03/01 00:19:17;;;;;;;29.98;18.33;;;;;;;;;;5094043;28;20226;-62
2021/03/01 00:21:44;;;;;;;27.88;17.80;;;;;;;;;;5093689;28;20211;-62
2021/03/01 00:24:12;;;;;;;28.90;20.00;;;;;;;;;;5097520;28;20220;-62
2021/03/01 00:26:38;;;;;;;25.55;17.52;;;;;;;;;;5098020;28;20204;-63
2021/03/01 00:29:05;;;;;;;26.27;18.63;;;;;;;;;;5098757;28;20222;-62
2021/03/01 00:31:32;;;;;;;25.55;17.98;;;;;;;;;;5099632;28;20238;-63
2021/03/01 00:33:59;;;;;;;31.92;19.35;;;;;;;;;;5098761;28;20227;-63
2021/03/01 00:36:25;;;;;;;28.63;18.63;;;;;;;;;;5099362;28;20204;-63
2021/03/01 00:38:52;;;;;;;26.77;19.58;;;;;;;;;;5098111;28;20192;-63
2021/03/01 00:41:20;;;;;;;30.08;19.95;;;;;;;;;;5099259;28;20200;-63
2021/03/01 00:43:47;;;;;;;30.30;20.13;;;;;;;;;;5099118;28;20273;-63
2021/03/01 00:46:13;;;;;;;31.70;20.83;;;;;;;;;;5099025;28;20249;-62
2021/03/01 00:48:40;;;;;;;31.95;19.95;;;;;;;;;;5099865;28;20216;-63
2021/03/01 00:51:07;;;;;;;31.10;21.33;;;;;;;;;;5108978;28;20221;-63
2021/03/01 00:53:34;;;;;;;29.67;20.02;;;;;;;;;;5102318;28;20714;-63
2021/03/01 00:56:00;;;;;;;36.30;22.40;;;;;;;;;;5099088;28;20550;-62
2021/03/01 00:58:28;;;;;;;33.78;20.60;;;;;;;;;;5098698;28;20557;-63
2021/03/01 01:00:55;;;;;;;30.02;22.15;;;;;;;;;;5098491;28;20196;-65
2021/03/01 01:03:22;;;;;;;27.35;19.95;;;;;;;;;;5100493;28;20216;-63
2021/03/01 01:05:48;;;;;;;33.33;20.33;;;;;;;;;;5098313;28;20208;-63
2021/03/01 01:08:15;;;;;;;29.77;20.30;;;;;;;;;;5098187;28;20204;-63
2021/03/01 01:10:42;;;;;;;30.17;20.83;;;;;;;;;;5097897;28;20208;-62
2021/03/01 01:13:09;;;;;;;26.40;19.00;;;;;;;;;;5100010;28;20221;-63
2021/03/01 01:15:37;;;;;;;28.73;21.45;;;;;;;;;;5103220;28;20204;-63
2021/03/01 01:18:05;;;;;;;29.35;19.75;;;;;;;;;;5102619;28;20203;-63
2021/03/01 01:20:31;;;;;;;30.08;20.17;;;;;;;;;;5099621;28;20200;-62
2021/03/01 01:22:58;;;;;;;30.90;20.90;;;;;;;;;;5098056;28;20220;-63
2021/03/01 01:25:25;;;;;;;32.80;21.08;;;;;;;;;;5097712;28;20207;-64
2021/03/01 01:27:52;;;;;;;28.05;18.75;;;;;;;;;;5096815;28;20696;-63
2021/03/01 01:30:20;;;;;;;30.80;18.90;;;;;;;;;;5096705;28;20203;-63
2021/03/01 01:32:48;;;;;;;30.27;19.75;;;;;;;;;;5096800;28;20200;-63
2021/03/01 01:35:15;;;;;;;20.42;14.73;;;;;;;;;;5095883;28;20200;-63
2021/03/01 01:37:42;;;;;;;24.55;17.35;;;;;;;;;;5096605;28;20207;-63
2021/03/01 01:40:10;;;;;;;24.83;15.20;;;;;;;;;;5096529;28;20205;-63
2021/03/01 01:42:37;;;;;;;26.00;17.35;;;;;;;;;;5096312;28;20204;-62
2021/03/01 01:45:07;;;;;;;26.15;17.50;;;;;;;;;;5096481;28;20216;-63
2021/03/01 01:47:34;;;;;;;31.95;19.13;;;;;;;;;;5095995;28;20218;-62
2021/03/01 01:50:01;;;;;;;22.00;15.00;;;;;;;;;;5096583;28;20200;-63
2021/03/01 01:52:28;;;;;;;19.88;13.80;;;;;;;;;;5096915;28;20208;-63
2021/03/01 01:54:55;;;;;;;17.02;12.75;;;;;;;;;;5097806;28;20287;-62
2021/03/01 01:57:23;;;;;;;19.27;13.02;;;;;;;;;;5097169;28;20208;-62
2021/03/01 01:59:50;;;;;;;19.23;13.70;;;;;;;;;;5106613;28;20201;-63
2021/03/01 02:02:16;;;;;;;20.58;12.65;;;;;;;;;;5106218;28;20192;-62
2021/03/01 02:04:46;;;;;;;23.45;14.32;;;;;;;;;;5106794;28;20224;-63
2021/03/01 02:07:16;;;;;;;18.45;12.65;;;;;;;;;;5109590;28;20230;-63
2021/03/01 02:09:49;;;;;;;24.05;12.40;;;;;;;;;;5109716;28;20224;-62
2021/03/01 02:12:19;;;;;;;22.35;14.82;;;;;;;;;;5107642;28;20188;-62
2021/03/01 02:14:51;;;;;;;22.50;14.65;;;;;;;;;;5109246;28;20246;-62
2021/03/01 02:17:18;;;;;;;23.50;13.88;;;;;;;;;;5104878;28;20188;-63
2021/03/01 02:19:45;;;;;;;22.80;15.02;;;;;;;;;;5103514;28;20200;-63
2021/03/01 02:22:13;;;;;;;22.42;13.05;;;;;;;;;;5103644;28;20204;-63
2021/03/01 02:24:42;;;;;;;31.38;18.55;;;;;;;;;;5107441;28;20220;-62
2021/03/01 02:27:09;;;;;;;26.05;16.55;;;;;;;;;;5104409;28;20196;-63
2021/03/01 02:29:36;;;;;;;27.33;18.20;;;;;;;;;;5104106;28;20209;-63
2021/03/01 02:32:03;;;;;;;28.10;18.38;;;;;;;;;;5110071;28;20200;-63
2021/03/01 02:34:32;;;;;;;39.88;21.85;;;;;;;;;;5099579;28;20224;-63
2021/03/01 02:37:01;;;;;;;32.30;19.45;;;;;;;;;;5101947;28;20231;-62
2021/03/01 02:39:30;;;;;;;31.25;18.10;;;;;;;;;;5100376;28;20196;-62
2021/03/01 02:41:57;;;;;;;30.45;17.55;;;;;;;;;;5095553;28;20204;-63
2021/03/01 02:44:24;;;;;;;30.83;18.00;;;;;;;;;;5095053;28;20246;-63
2021/03/01 02:46:52;;;;;;;27.25;16.40;;;;;;;;;;5093757;28;20200;-63
2021/03/01 02:49:19;;;;;;;25.45;15.70;;;;;;;;;;5094586;28;20217;-64
2021/03/01 02:51:48;;;;;;;30.70;17.55;;;;;;;;;;5094596;28;20220;-64
2021/03/01 02:54:15;;;;;;;34.53;19.80;;;;;;;;;;5094373;28;20270;-64
2021/03/01 02:56:43;;;;;;;29.70;19.17;;;;;;;;;;5094471;28;20207;-63
2021/03/01 02:59:11;;;;;;;27.70;19.00;;;;;;;;;;5095633;28;20196;-61
2021/03/01 03:01:39;;;;;;;28.83;19.23;;;;;;;;;;5095418;28;20196;-63
2021/03/01 03:04:06;;;;;;;33.38;19.80;;;;;;;;;;5094925;28;20216;-62
2021/03/01 03:06:34;;;;;;;31.20;18.52;;;;;;;;;;5096595;28;20215;-63
2021/03/01 03:09:01;;;;;;;34.00;18.20;;;;;;;;;;5095969;28;20220;-63
2021/03/01 03:11:28;;;;;;;25.30;16.40;;;;;;;;;;5096248;28;20302;-63
2021/03/01 03:13:57;;;;;;;23.77;15.57;;;;;;;;;;5098244;28;20231;-63
2021/03/01 03:16:24;;;;;;;23.38;14.82;;;;;;;;;;5097279;28;20209;-62
2021/03/01 03:18:52;;;;;;;26.70;15.77;;;;;;;;;;5096309;28;20211;-61
2021/03/01 03:21:19;;;;;;;24.05;14.52;;;;;;;;;;5095911;28;20227;-63
2021/03/01 03:23:45;;;;;;;26.60;14.05;;;;;;;;;;5094744;28;20247;-63
2021/03/01 03:26:13;;;;;;;23.73;14.40;;;;;;;;;;5094427;28;20549;-63
2021/03/01 03:28:40;;;;;;;20.77;15.27;;;;;;;;;;5093913;28;20216;-63
2021/03/01 03:31:07;;;;;;;20.13;14.50;;;;;;;;;;5093947;28;20200;-63
2021/03/01 03:33:34;;;;;;;25.10;14.75;;;;;;;;;;5094168;28;20224;-63
2021/03/01 03:36:02;;;;;;;25.75;15.95;;;;;;;;;;5093790;28;20741;-63
2021/03/01 03:38:30;;;;;;;22.08;14.43;;;;;;;;;;5094081;28;20201;-63
2021/03/01 03:40:59;;;;;;;23.48;13.45;;;;;;;;;;5094088;28;20196;-64
2021/03/01 03:43:26;;;;;;;24.00;15.38;;;;;;;;;;5093651;28;20766;-62
2021/03/01 03:45:54;;;;;;;24.02;14.25;;;;;;;;;;5093868;28;20701;-63
2021/03/01 03:48:22;;;;;;;23.13;13.88;;;;;;;;;;5095039;28;20224;-63
2021/03/01 03:50:50;;;;;;;21.15;12.48;;;;;;;;;;5111345;28;20197;-63
2021/03/01 03:53:18;;;;;;;24.42;14.88;;;;;;;;;;5105671;28;20266;-62
2021/03/01 03:55:47;;;;;;;19.20;13.35;;;;;;;;;;5098116;28;20225;-63
2021/03/01 03:58:16;;;;;;;22.58;12.82;;;;;;;;;;5094352;28;20200;-63
2021/03/01 04:00:45;;;;;;;23.17;13.90;;;;;;;;;;5094174;28;20208;-63
2021/03/01 04:03:13;;;;;;;19.85;12.38;;;;;;;;;;5095052;28;20263;-63
2021/03/01 04:07:48;;;;;;;21.90;14.32;;;;;;;;;;5112036;27;20940;-62
2021/03/01 04:10:15;;;;;;;19.25;12.57;;;;;;;;;;5111240;28;20690;-63
2021/03/01 04:12:44;;;;;;;20.77;14.45;;;;;;;;;;5111293;28;20728;-63
2021/03/01 04:15:12;;;;;;;18.48;12.77;;;;;;;;;;5111561;28;20556;-63
2021/03/01 04:17:40;;;;;;;19.63;13.48;;;;;;;;;;5111505;28;20200;-62
2021/03/01 04:20:08;;;;;;;19.23;13.90;;;;;;;;;;5111345;28;20226;-63
2021/03/01 04:22:36;;;;;;;21.92;14.38;;;;;;;;;;5111197;28;20206;-62
2021/03/01 04:25:06;;;;;;;17.50;12.73;;;;;;;;;;5111307;28;20203;-63
2021/03/01 04:27:37;;;;;;;17.95;12.30;;;;;;;;;;5110886;28;20739;-64
2021/03/01 04:30:04;;;;;;;21.17;14.40;;;;;;;;;;5111319;28;20191;-64
2021/03/01 04:32:31;;;;;;;17.45;13.07;;;;;;;;;;5111243;28;20252;-64
2021/03/01 04:34:58;;;;;;;18.50;12.00;;;;;;;;;;5111030;28;20200;-63
2021/03/01 04:37:25;;;;;;;20.10;13.40;;;;;;;;;;5110669;28;20664;-63
2021/03/01 04:39:51;;;;;;;17.42;12.52;;;;;;;;;;5110524;28;20214;-63
2021/03/01 04:42:19;;;;;;;18.27;13.00;;;;;;;;;;5110393;28;20254;-63
2021/03/01 04:44:47;;;;;;;21.35;14.10;;;;;;;;;;5110769;28;20227;-62
2021/03/01 04:47:14;;;;;;;21.58;13.88;;;;;;;;;;5110522;28;20260;-64
2021/03/01 04:49:41;;;;;;;25.08;13.43;;;;;;;;;;5110490;28;20199;-63
2021/03/01 04:52:08;;;;;;;19.30;13.05;;;;;;;;;;5111185;28;20203;-63
2021/03/01 04:54:36;;;;;;;23.67;14.45;;;;;;;;;;5110812;28;20220;-63
2021/03/01 04:57:03;;;;;;;22.17;14.63;;;;;;;;;;5110548;28;20195;-63
2021/03/01 04:59:31;;;;;;;23.38;14.15;;;;;;;;;;5112931;28;20230;-63
2021/03/01 05:01:58;;;;;;;26.35;15.95;;;;;;;;;;5114954;28;20246;-63
2021/03/01 05:04:25;;;;;;;25.38;15.90;;;;;;;;;;5122496;28;20596;-63
2021/03/01 05:06:52;;;;;;;22.85;14.45;;;;;;;;;;5117826;28;20227;-63
2021/03/01 05:09:19;;;;;;;28.42;15.50;;;;;;;;;;5110820;28;20203;-63
2021/03/01 05:11:46;;;;;;;25.35;16.02;;;;;;;;;;5111117;28;20203;-62
2021/03/01 05:14:13;;;;;;;23.35;14.32;;;;;;;;;;5110407;28;20305;-63
2021/03/01 05:16:40;;;;;;;23.33;16.00;;;;;;;;;;5110459;28;20206;-63
2021/03/01 05:19:07;;;;;;;22.00;14.50;;;;;;;;;;5097072;28;20204;-63
2021/03/01 05:21:34;;;;;;;23.88;15.27;;;;;;;;;;5096725;28;20204;-63
2021/03/01 05:24:01;;;;;;;24.23;14.82;;;;;;;;;;5097137;28;20270;-63
2021/03/01 05:26:28;;;;;;;31.42;18.20;;;;;;;;;;5096675;28;20217;-62
2021/03/01 05:28:55;;;;;;;27.35;17.85;;;;;;;;;;5096677;28;20309;-63
2021/03/01 05:31:21;;;;;;;30.80;18.23;;;;;;;;;;5100250;28;20204;-63
2021/03/01 05:33:49;;;;;;;34.03;19.75;;;;;;;;;;5097985;28;20225;-62
2021/03/01 05:36:16;;;;;;;29.08;17.35;;;;;;;;;;5098896;28;20203;-63
2021/03/01 05:38:43;;;;;;;33.97;19.45;;;;;;;;;;5100305;28;20205;-62
2021/03/01 05:41:11;;;;;;;37.53;24.48;;;;;;;;;;5101342;28;20258;-63
2021/03/01 05:43:38;;;;;;;36.83;19.92;;;;;;;;;;5097900;28;20227;-63
2021/03/01 05:46:05;;;;;;;31.63;20.40;;;;;;;;;;5097076;28;20217;-63
2021/03/01 05:48:32;;;;;;;38.75;20.10;;;;;;;;;;5098382;28;20197;-62
2021/03/01 05:51:00;;;;;;;30.27;20.00;;;;;;;;;;5097513;28;20204;-62
2021/03/01 05:53:29;;;;;;;33.47;19.83;;;;;;;;;;5096675;28;20225;-63
2021/03/01 05:55:58;;;;;;;29.50;19.90;;;;;;;;;;5096423;28;20204;-63
2021/03/01 05:58:25;;;;;;;34.50;19.77;;;;;;;;;;5096665;28;20226;-63
2021/03/01 06:00:53;;;;;;;30.00;18.90;;;;;;;;;;5097541;28;20204;-63
2021/03/01 06:03:20;;;;;;;28.58;16.35;;;;;;;;;;5098482;28;20223;-64
2021/03/01 06:05:46;;;;;;;30.95;18.10;;;;;;;;;;5102403;28;20212;-63
2021/03/01 06:08:16;;;;;;;24.52;16.63;;;;;;;;;;5101560;28;20672;-63
2021/03/01 06:10:42;;;;;;;30.70;18.02;;;;;;;;;;5103410;28;20196;-64
2021/03/01 06:13:09;;;;;;;27.60;18.10;;;;;;;;;;5099387;28;20266;-62
2021/03/01 06:15:37;;;;;;;33.53;16.90;;;;;;;;;;5096265;28;20686;-63
2021/03/01 06:18:05;;;;;;;27.00;18.48;;;;;;;;;;5097095;28;20207;-63
2021/03/01 06:20:32;;;;;;;28.67;16.70;;;;;;;;;;5095725;28;20287;-63
2021/03/01 06:22:59;;;;;;;28.35;17.30;;;;;;;;;;5095543;28;20224;-63
2021/03/01 06:25:27;;;;;;;29.42;18.20;;;;;;;;;;5096084;28;20205;-63
2021/03/01 06:27:55;;;;;;;32.40;18.60;;;;;;;;;;5095323;28;20711;-63
2021/03/01 06:30:23;;;;;;;36.22;21.27;;;;;;;;;;5094336;28;20254;-63
2021/03/01 06:33:06;;;;;;;30.83;18.48;;;;;;;;;;5095101;28;20257;-65
2021/03/01 06:35:34;;;;;;;33.78;19.80;;;;;;;;;;5095857;28;20200;-63
2021/03/01 06:38:23;;;;;;;34.85;21.98;;;;;;;;;;5095340;28;20205;-62
2021/03/01 06:41:05;;;;;;;37.53;23.25;;;;;;;;;;5094940;28;20196;-63
2021/03/01 06:43:33;;;;;;;33.95;21.00;;;;;;;;;;5092970;28;20228;-63
2021/03/01 06:46:07;;;;;;;36.95;23.48;;;;;;;;;;5095048;28;20621;-63
2021/03/01 06:48:33;;;;;;;34.28;20.80;;;;;;;;;;5096494;28;20188;-63
2021/03/01 06:51:00;;;;;;;34.83;21.65;;;;;;;;;;5107821;28;20257;-63
2021/03/01 06:53:28;;;;;;;32.00;20.13;;;;;;;;;;5097603;28;20730;-62
2021/03/01 06:55:56;;;;;;;31.45;20.40;;;;;;;;;;5096367;28;20679;-64
2021/03/01 06:58:24;;;;;;;33.40;21.00;;;;;;;;;;5096908;28;20204;-64
2021/03/01 07:00:59;;;;;;;37.13;21.23;;;;;;;;;;5095035;28;20673;-61
2021/03/01 07:03:27;;;;;;;37.88;23.02;;;;;;;;;;5098114;28;20231;-62
2021/03/01 07:05:54;;;;;;;31.33;19.50;;;;;;;;;;5094871;28;20208;-63
2021/03/01 07:08:34;;;;;;;31.77;20.85;;;;;;;;;;5095906;28;20227;-63
2021/03/01 07:11:01;;;;;;;35.42;20.85;;;;;;;;;;5094255;28;20215;-63
2021/03/01 07:13:28;;;;;;;35.85;20.63;;;;;;;;;;5094506;28;20228;-64
2021/03/01 07:15:55;;;;;;;32.40;19.80;;;;;;;;;;5094875;28;20627;-63
2021/03/01 07:18:23;;;;;;;33.92;20.50;;;;;;;;;;5094891;28;20229;-64
2021/03/01 07:20:50;;;;;;;36.95;20.85;;;;;;;;;;5095082;28;20208;-64
2021/03/01 07:23:17;;;;;;;41.35;20.40;;;;;;;;;;5094975;28;20228;-63
2021/03/01 07:25:45;;;;;;;34.53;19.92;;;;;;;;;;5094276;28;20200;-64
2021/03/01 07:28:14;;;;;;;34.22;20.73;;;;;;;;;;5095146;28;20283;-64
2021/03/01 07:30:42;;;;;;;40.40;20.27;;;;;;;;;;5098084;28;20291;-64
2021/03/01 07:33:09;;;;;;;32.05;18.83;;;;;;;;;;5096446;28;20228;-62
2021/03/01 07:35:37;;;;;;;34.88;21.67;;;;;;;;;;5095066;28;20200;-63
2021/03/01 07:38:05;;;;;;;34.25;21.73;;;;;;;;;;5094426;28;20250;-64
2021/03/01 07:40:31;;;;;;;34.10;19.95;;;;;;;;;;5094194;28;20200;-62
2021/03/01 07:42:58;;;;;;;36.78;21.50;;;;;;;;;;5094606;28;20235;-63
2021/03/01 07:45:25;;;;;;;33.17;20.38;;;;;;;;;;5095124;28;20204;-64
2021/03/01 07:47:52;;;;;;;32.78;21.02;;;;;;;;;;5099526;28;20223;-64
2021/03/01 07:50:32;;;;;;;32.38;19.23;;;;;;;;;;5102339;28;20232;-64
2021/03/01 07:53:00;;;;;;;30.42;18.73;;;;;;;;;;5103599;28;20239;-63
2021/03/01 07:55:27;;;;;;;45.22;24.05;;;;;;;;;;5104978;28;20230;-64
2021/03/01 07:58:00;;;;;;;28.48;20.08;;;;;;;;;;5100509;28;20196;-63
2021/03/01 08:00:28;;;;;;;30.75;18.90;;;;;;;;;;5098736;28;20668;-63
2021/03/01 08:02:55;;;;;;;31.13;20.13;;;;;;;;;;5096696;28;20220;-62
2021/03/01 08:05:24;;;;;;;33.50;20.40;;;;;;;;;;5095364;28;20200;-64
2021/03/01 08:07:51;;;;;;;30.60;17.70;;;;;;;;;;5095684;28;20204;-64
2021/03/01 08:10:42;;;;;;;29.70;18.48;;;;;;;;;;5096305;28;20200;-64
2021/03/01 08:13:09;;;;;;;33.40;19.05;;;;;;;;;;5095017;28;20708;-64
2021/03/01 08:15:45;;;;;;;28.63;17.00;;;;;;;;;;5096659;28;20204;-64
2021/03/01 08:18:13;;;;;;;29.70;18.13;;;;;;;;;;5094710;28;20215;-64
2021/03/01 08:20:57;;;;;;;28.27;17.15;;;;;;;;;;5095312;28;20211;-63
2021/03/01 08:23:31;;;;;;;29.25;18.58;;;;;;;;;;5095309;28;20216;-66
2021/03/01 08:26:02;;;;;;;26.65;17.05;;;;;;;;;;5094759;28;20598;-64
2021/03/01 08:28:45;;;;;;;26.98;17.83;;;;;;;;;;5094374;28;20701;-64
2021/03/01 08:31:32;;;;;;;23.73;15.45;;;;;;;;;;5096262;28;20196;-64
2021/03/01 08:34:17;;;;;;;24.02;15.95;;;;;;;;;;5091283;28;20277;-62
2021/03/01 08:36:44;;;;;;;25.05;16.38;;;;;;;;;;5094200;28;20207;-63
2021/03/01 08:39:11;;;;;;;20.92;14.55;;;;;;;;;;5093899;28;20196;-62
2021/03/01 08:41:42;;;;;;;19.38;13.65;;;;;;;;;;5093900;28;20222;-62
2021/03/01 08:44:20;;;;;;;24.50;14.38;;;;;;;;;;5094061;28;20227;-62
2021/03/01 08:46:48;;;;;;;24.17;12.77;;;;;;;;;;5093790;28;20224;-64
2021/03/01 08:49:22;;;;;;;18.08;12.30;;;;;;;;;;5093735;28;20746;-63
2021/03/01 08:51:49;;;;;;;21.23;13.50;;;;;;;;;;5094345;28;20199;-62
2021/03/01 08:54:25;;;;;;;18.48;12.60;;;;;;;;;;5097712;28;20277;-64
2021/03/01 08:57:02;;;;;;;18.48;13.15;;;;;;;;;;5098830;28;20187;-63
2021/03/01 08:59:29;;;;;;;17.85;11.95;;;;;;;;;;5098473;28;20216;-63
2021/03/01 09:01:55;;;;;;;18.13;11.60;;;;;;;;;;5099435;28;20196;-62
2021/03/01 09:04:22;;;;;;;19.75;13.73;;;;;;;;;;5098877;28;20231;-63
2021/03/01 09:06:49;;;;;;;19.35;12.38;;;;;;;;;;5097817;28;20707;-62
2021/03/01 09:09:16;;;;;;;17.63;11.85;;;;;;;;;;5099431;28;20201;-63
2021/03/01 09:11:43;;;;;;;15.70;11.88;;;;;;;;;;5099328;28;20207;-63
2021/03/01 09:14:10;;;;;;;17.25;13.07;;;;;;;;;;5100505;28;20269;-64
2021/03/01 09:16:40;;;;;;;21.67;12.40;;;;;;;;;;5098138;28;20201;-65
2021/03/01 09:19:07;;;;;;;18.40;11.95;;;;;;;;;;5097305;28;20599;-64
2021/03/01 09:21:36;;;;;;;17.90;11.57;;;;;;;;;;5096434;28;20854;-63
2021/03/01 09:24:03;;;;;;;19.85;12.70;;;;;;;;;;5096751;28;20223;-64
2021/03/01 09:26:33;;;;;;;16.50;11.50;;;;;;;;;;5096075;28;20232;-63
2021/03/01 09:29:01;;;;;;;16.85;11.65;;;;;;;;;;5096257;28;20247;-64
2021/03/01 09:31:29;;;;;;;16.63;12.55;;;;;;;;;;5096804;28;20242;-63
2021/03/01 09:33:56;;;;;;;16.77;12.65;;;;;;;;;;5094698;28;20229;-64
2021/03/01 09:36:27;;;;;;;17.30;12.68;;;;;;;;;;5095626;28;20622;-64
2021/03/01 09:38:54;;;;;;;17.45;11.38;;;;;;;;;;5096415;28;20283;-64
2021/03/01 09:41:21;;;;;;;16.63;12.48;;;;;;;;;;5097162;28;20208;-63
2021/03/01 09:43:49;;;;;;;15.25;11.80;;;;;;;;;;5096363;28;20216;-63
2021/03/01 09:46:16;;;;;;;16.25;12.27;;;;;;;;;;5097068;28;20220;-63
2021/03/01 09:48:45;;;;;;;17.60;12.63;;;;;;;;;;5096875;28;20200;-64
2021/03/01 09:51:12;;;;;;;18.85;13.80;;;;;;;;;;5105002;28;20230;-63
2021/03/01 09:53:39;;;;;;;17.85;14.18;;;;;;;;;;5101145;28;20220;-65
2021/03/01 09:56:06;;;;;;;16.70;12.88;;;;;;;;;;5097871;28;20254;-64
2021/03/01 09:58:34;;;;;;;23.23;14.02;;;;;;;;;;5099431;28;20215;-63
2021/03/01 10:01:07;;;;;;;22.33;14.63;;;;;;;;;;5096919;28;20200;-64
2021/03/01 10:03:38;;;;;;;20.27;13.90;;;;;;;;;;5081488;28;20286;-64
2021/03/01 10:06:06;;;;;;;22.08;16.15;;;;;;;;;;5075657;28;20507;-62
2021/03/01 10:08:33;;;;;;;24.88;15.35;;;;;;;;;;5075890;28;20281;-62
2021/03/01 10:10:59;;;;;;;24.73;16.75;;;;;;;;;;5074956;28;20610;-64
2021/03/01 10:13:28;;;;;;;19.55;14.90;;;;;;;;;;5075114;28;20274;-64
2021/03/01 10:15:55;;;;;;;22.25;16.00;;;;;;;;;;5074919;28;20629;-62
2021/03/01 10:18:22;;;;;;;27.75;17.20;;;;;;;;;;5089785;28;20204;-63
2021/03/01 10:20:53;;;;;;;27.77;17.38;;;;;;;;;;5095334;28;20683;-63
2021/03/01 10:23:32;;;;;;;22.77;16.67;;;;;;;;;;5095283;28;20732;-63
2021/03/01 10:26:16;;;;;;;26.55;19.27;;;;;;;;;;5095236;28;20204;-62
2021/03/01 10:28:47;;;;;;;30.38;22.13;;;;;;;;;;5096243;28;20218;-62
2021/03/01 10:31:14;;;;;;;30.23;21.15;;;;;;;;;;5095444;28;20196;-61
2021/03/01 10:33:58;;;;;;;33.03;22.15;;;;;;;;;;5092954;28;20231;-61
2021/03/01 10:36:26;;;;;;;31.02;21.88;;;;;;;;;;5094867;28;20208;-61
2021/03/01 10:38:58;;;;;;;33.60;22.13;;;;;;;;;;5095708;28;20291;-61
2021/03/01 10:41:25;;;;;;;38.80;26.33;;;;;;;;;;5097187;28;20200;-62
2021/03/01 10:43:53;;;;;;;49.80;30.40;;;;;;;;;;5110192;28;20220;-61
2021/03/01 10:46:36;;;;;;;52.83;33.30;;;;;;;;;;5106372;28;20220;-63
2021/03/01 10:49:04;;;;;;;52.20;34.22;;;;;;;;;;5102741;28;20204;-62
2021/03/01 10:51:31;;;;;;;62.58;37.42;;;;;;;;;;5102999;28;20215;-64
2021/03/01 10:53:59;;;;;;;57.35;37.95;;;;;;;;;;5099491;28;20270;-63
2021/03/01 10:56:25;;;;;;;58.80;36.67;;;;;;;;;;5097202;28;20290;-61
2021/03/01 10:58:52;;;;;;;51.83;34.42;;;;;;;;;;5094573;28;20208;-63
2021/03/01 11:01:19;;;;;;;58.50;36.58;;;;;;;;;;5072982;28;20216;-64
2021/03/01 11:03:46;;;;;;;57.92;36.33;;;;;;;;;;5076532;28;20221;-65
2021/03/01 11:06:13;;;;;;;52.95;35.83;;;;;;;;;;5084341;28;20209;-62
2021/03/01 11:08:43;;;;;;;51.33;32.75;;;;;;;;;;5086676;28;20205;-63
2021/03/01 11:11:12;;;;;;;56.05;36.28;;;;;;;;;;5078654;28;20201;-63
2021/03/01 11:13:39;;;;;;;53.13;36.35;;;;;;;;;;5074774;28;20307;-62
2021/03/01 11:16:06;;;;;;;60.05;37.72;;;;;;;;;;5073113;28;20669;-65
2021/03/01 11:18:33;;;;;;;56.88;38.17;;;;;;;;;;5091879;28;20548;-63
2021/03/01 11:20:59;;;;;;;56.85;36.65;;;;;;;;;;5093525;28;20204;-64
2021/03/01 11:23:26;;;;;;;52.10;33.17;;;;;;;;;;5094820;28;20265;-62
2021/03/01 11:25:53;;;;;;;50.03;34.13;;;;;;;;;;5094561;28;20204;-63
2021/03/01 11:28:21;;;;;;;51.78;34.80;;;;;;;;;;5093954;28;20221;-63
2021/03/01 11:30:48;;;;;;;52.20;33.47;;;;;;;;;;5093967;28;20261;-63
2021/03/01 11:33:14;;;;;;;52.42;34.58;;;;;;;;;;5096367;28;20999;-64
2021/03/01 11:35:41;;;;;;;46.87;32.03;;;;;;;;;;5093681;28;20572;-64
2021/03/01 11:38:08;;;;;;;55.63;35.25;;;;;;;;;;5094326;28;20449;-62
2021/03/01 11:40:35;;;;;;;46.05;32.38;;;;;;;;;;5095037;28;20208;-63
2021/03/01 11:43:02;;;;;;;51.28;34.67;;;;;;;;;;5093460;28;20246;-63
2021/03/01 11:45:30;;;;;;;47.53;33.50;;;;;;;;;;5093774;28;20211;-63
2021/03/01 11:47:56;;;;;;;49.17;33.65;;;;;;;;;;5093263;28;20493;-63
2021/03/01 11:50:23;;;;;;;50.57;34.30;;;;;;;;;;5094555;28;20203;-63
2021/03/01 11:52:50;;;;;;;50.25;34.53;;;;;;;;;;5094117;28;20446;-65
2021/03/01 11:55:17;;;;;;;49.77;32.93;;;;;;;;;;5099419;28;20196;-63
2021/03/01 11:57:44;;;;;;;43.50;32.17;;;;;;;;;;5100212;28;20442;-63
2021/03/01 12:00:11;;;;;;;50.42;35.10;;;;;;;;;;5099532;28;20196;-61
2021/03/01 12:02:39;;;;;;;48.75;34.55;;;;;;;;;;5096176;28;20204;-62
2021/03/01 12:05:06;;;;;;;53.47;35.00;;;;;;;;;;5096233;28;20245;-63
2021/03/01 12:07:33;;;;;;;46.33;32.78;;;;;;;;;;5094261;28;20504;-63
2021/03/01 12:10:00;;;;;;;50.63;35.67;;;;;;;;;;5094608;28;20204;-61
2021/03/01 12:12:26;;;;;;;50.22;34.85;;;;;;;;;;5094524;28;20529;-64
2021/03/01 12:14:53;;;;;;;52.88;37.08;;;;;;;;;;5095745;28;20220;-61
2021/03/01 12:17:21;;;;;;;52.03;36.53;;;;;;;;;;5094098;28;20250;-63
2021/03/01 12:19:49;;;;;;;49.58;35.92;;;;;;;;;;5094312;28;20196;-62
2021/03/01 12:22:15;;;;;;;47.17;34.22;;;;;;;;;;5094554;28;20204;-62
2021/03/01 12:24:42;;;;;;;48.17;33.97;;;;;;;;;;5094180;28;20277;-61
2021/03/01 12:27:09;;;;;;;53.40;36.65;;;;;;;;;;5093997;28;20254;-61
2021/03/01 12:29:36;;;;;;;54.67;36.20;;;;;;;;;;5101445;28;20223;-62
2021/03/01 12:32:02;;;;;;;55.88;38.13;;;;;;;;;;5100161;28;20195;-62
2021/03/01 12:34:29;;;;;;;61.03;39.47;;;;;;;;;;5098148;28;20224;-63
2021/03/01 12:36:57;;;;;;;54.35;38.60;;;;;;;;;;5098174;28;20192;-62
2021/03/01 12:39:24;;;;;;;53.58;36.95;;;;;;;;;;5097246;28;20249;-62
2021/03/01 12:41:50;;;;;;;52.20;38.13;;;;;;;;;;5097825;28;20203;-62
2021/03/01 12:44:17;;;;;;;51.45;35.20;;;;;;;;;;5097758;28;20224;-61
2021/03/01 12:46:44;;;;;;;51.25;37.40;;;;;;;;;;5096813;28;20664;-62
2021/03/01 12:49:11;;;;;;;47.58;33.03;;;;;;;;;;5097044;28;20284;-63
2021/03/01 12:51:37;;;;;;;47.35;35.28;;;;;;;;;;5098516;28;20196;-62
2021/03/01 12:54:05;;;;;;;43.97;31.38;;;;;;;;;;5101178;28;20220;-62
2021/03/01 12:56:32;;;;;;;40.03;28.83;;;;;;;;;;5101939;28;20196;-63
2021/03/01 12:58:59;;;;;;;43.30;30.70;;;;;;;;;;5099194;28;20212;-68
2021/03/01 13:01:26;;;;;;;41.90;29.92;;;;;;;;;;5083158;28;20677;-62
2021/03/01 13:03:52;;;;;;;46.58;30.45;;;;;;;;;;5084349;28;20220;-62
2021/03/01 13:06:19;;;;;;;32.10;22.05;;;;;;;;;;5082927;28;20212;-63
2021/03/01 13:08:46;;;;;;;37.88;25.15;;;;;;;;;;5083177;28;20200;-61
2021/03/01 13:11:14;;;;;;;37.55;23.73;;;;;;;;;;5081616;28;20213;-63
2021/03/01 13:13:41;;;;;;;26.00;19.67;;;;;;;;;;5079621;28;20221;-62
2021/03/01 13:16:08;;;;;;;24.10;18.42;;;;;;;;;;5079606;28;20201;-62
2021/03/01 13:18:34;;;;;;;23.05;17.55;;;;;;;;;;5079823;28;20576;-62
2021/03/01 13:21:01;;;;;;;22.20;16.45;;;;;;;;;;5077598;28;20615;-63
2021/03/01 13:23:28;;;;;;;22.30;15.32;;;;;;;;;;5079385;28;20235;-61
2021/03/01 13:25:55;;;;;;;21.23;14.88;;;;;;;;;;5079143;28;20204;-61
2021/03/01 13:28:23;;;;;;;20.05;13.98;;;;;;;;;;5078547;28;20228;-61
2021/03/01 13:30:50;;;;;;;19.05;13.27;;;;;;;;;;5077884;28;20254;-62
2021/03/01 13:33:16;;;;;;;17.10;12.98;;;;;;;;;;5085517;28;20232;-63
2021/03/01 13:35:43;;;;;;;16.67;12.00;;;;;;;;;;5082944;28;20648;-61
2021/03/01 13:38:10;;;;;;;16.67;12.23;;;;;;;;;;5075955;28;20226;-61
2021/03/01 13:40:37;;;;;;;21.50;13.75;;;;;;;;;;5095085;28;20203;-63
2021/03/01 13:43:04;;;;;;;18.88;12.82;;;;;;;;;;5096440;28;20221;-61
2021/03/01 13:45:31;;;;;;;19.90;14.43;;;;;;;;;;5096837;28;20668;-63
2021/03/01 13:47:58;;;;;;;21.45;15.80;;;;;;;;;;5096398;28;20337;-62
2021/03/01 13:50:25;;;;;;;24.30;15.95;;;;;;;;;;5095582;28;20192;-61
2021/03/01 13:52:51;;;;;;;22.15;16.08;;;;;;;;;;5095135;28;20208;-62
2021/03/01 13:55:18;;;;;;;24.20;17.35;;;;;;;;;;5096770;28;20208;-62
2021/03/01 13:57:46;;;;;;;23.83;16.20;;;;;;;;;;5096692;28;20203;-64
2021/03/01 14:00:13;;;;;;;24.27;16.00;;;;;;;;;;5096303;28;20207;-62
2021/03/01 14:02:41;;;;;;;29.40;17.52;;;;;;;;;;5087924;28;20205;-62
2021/03/01 14:05:09;;;;;;;25.23;16.65;;;;;;;;;;5074568;28;20251;-62
2021/03/01 14:07:36;;;;;;;25.20;16.65;;;;;;;;;;5074420;28;20307;-61
2021/03/01 14:10:04;;;;;;;23.90;16.63;;;;;;;;;;5075259;28;20221;-61
2021/03/01 14:12:30;;;;;;;24.92;16.90;;;;;;;;;;5075825;28;20622;-62
2021/03/01 14:14:57;;;;;;;27.75;17.45;;;;;;;;;;5074719;28;20221;-62
2021/03/01 14:17:24;;;;;;;26.25;17.55;;;;;;;;;;5074814;28;20614;-60
2021/03/01 14:19:51;;;;;;;25.63;18.88;;;;;;;;;;5074499;28;20204;-63
2021/03/01 14:22:18;;;;;;;26.27;19.67;;;;;;;;;;5074557;28;20281;-65
2021/03/01 14:24:45;;;;;;;31.73;21.60;;;;;;;;;;5089551;28;20239;-64